createdAt,value
2019-02-18T00:00:06.747Z,0.00
2019-02-18T00:01:06.736Z,0.00
2019-02-18T00:02:06.724Z,0.00
2019-02-18T00:03:06.713Z,0.00
2019-02-18T00:04:06.702Z,0.00
2019-02-18T00:05:06.691Z,0.00
2019-02-18T00:06:06.683Z,0.00
2019-02-18T00:07:14.023Z,0.00
2019-02-18T00:08:07.658Z,0.00
2019-02-18T00:09:06.649Z,0.00
2019-02-18T00:10:06.636Z,0.00
2019-02-18T00:11:06.625Z,0.00
2019-02-18T00:12:06.614Z,0.00
2019-02-18T00:13:06.602Z,0.00
2019-02-18T00:14:06.593Z,0.00
2019-02-18T00:15:06.581Z,0.00
2019-02-18T00:16:06.570Z,0.00
2019-02-18T00:17:06.559Z,0.00
2019-02-18T00:18:06.548Z,0.00
2019-02-18T00:19:06.537Z,0.00
2019-02-18T00:20:06.528Z,0.00
2019-02-18T00:21:06.517Z,0.00
2019-02-18T00:22:06.504Z,0.00
2019-02-18T00:23:06.493Z,0.00
2019-02-18T00:24:06.483Z,0.00
2019-02-18T00:25:06.477Z,0.00
2019-02-18T00:26:06.460Z,0.00
2019-02-18T00:27:06.458Z,0.00
2019-02-18T00:28:06.440Z,0.00
2019-02-18T00:29:06.432Z,0.00
2019-02-18T00:30:06.416Z,0.00
2019-02-18T00:31:06.413Z,0.00
2019-02-18T00:32:06.399Z,0.00
2019-02-18T00:33:06.382Z,0.00
2019-02-18T00:34:06.372Z,0.00
2019-02-18T00:35:06.384Z,0.00
2019-02-18T00:36:06.352Z,0.00
2019-02-18T00:37:06.338Z,0.00
2019-02-18T00:38:06.328Z,0.00
2019-02-18T00:39:06.316Z,0.00
2019-02-18T00:40:06.306Z,0.00
2019-02-18T00:41:06.295Z,0.00
2019-02-18T00:42:06.283Z,0.00
2019-02-18T00:43:06.272Z,0.00
2019-02-18T00:44:06.262Z,0.00
2019-02-18T00:45:06.253Z,0.00
2019-02-18T00:46:06.240Z,0.00
2019-02-18T00:47:06.229Z,0.00
2019-02-18T00:48:06.218Z,0.00
2019-02-18T00:49:06.208Z,0.00
2019-02-18T00:50:06.196Z,0.00
2019-02-18T00:51:06.186Z,0.00
2019-02-18T00:52:06.174Z,0.00
2019-02-18T00:53:06.164Z,0.00
2019-02-18T00:54:06.151Z,0.00
2019-02-18T00:55:06.238Z,0.00
2019-02-18T00:56:06.129Z,0.00
2019-02-18T00:57:06.120Z,0.00
2019-02-18T00:58:06.108Z,0.00
2019-02-18T00:59:06.098Z,0.00
2019-02-18T01:00:06.088Z,0.00
2019-02-18T01:01:06.077Z,0.00
2019-02-18T01:02:06.065Z,0.00
2019-02-18T01:03:06.056Z,0.00
2019-02-18T01:04:06.045Z,0.00
2019-02-18T01:05:06.036Z,0.00
2019-02-18T01:06:06.021Z,0.00
2019-02-18T01:07:06.015Z,0.00
2019-02-18T01:08:05.998Z,0.00
2019-02-18T01:09:05.987Z,0.00
2019-02-18T01:10:05.982Z,0.00
2019-02-18T01:11:05.966Z,0.00
2019-02-18T01:12:05.958Z,0.00
2019-02-18T01:13:05.943Z,0.00
2019-02-18T01:14:05.933Z,0.00
2019-02-18T01:15:05.921Z,0.00
2019-02-18T01:16:05.909Z,0.00
2019-02-18T01:17:05.901Z,0.00
2019-02-18T01:18:05.893Z,0.00
2019-02-18T01:19:05.877Z,0.00
2019-02-18T01:20:05.866Z,0.00
2019-02-18T01:21:05.856Z,0.00
2019-02-18T01:22:05.845Z,0.00
2019-02-18T01:23:05.836Z,0.00
2019-02-18T01:24:05.822Z,0.00
2019-02-18T01:25:05.812Z,0.00
2019-02-18T01:26:05.800Z,0.00
2019-02-18T01:27:05.790Z,0.00
2019-02-18T01:28:05.779Z,0.00
2019-02-18T01:29:05.770Z,0.00
2019-02-18T01:30:05.767Z,0.00
2019-02-18T01:31:05.745Z,0.00
2019-02-18T01:32:05.735Z,0.00
2019-02-18T01:33:05.792Z,0.00
2019-02-18T01:34:05.714Z,0.00
2019-02-18T01:35:05.701Z,0.00
2019-02-18T01:36:05.692Z,0.00
2019-02-18T01:37:05.679Z,0.00
2019-02-18T01:38:05.668Z,0.00
2019-02-18T01:39:05.658Z,0.00
2019-02-18T01:40:05.648Z,0.00
2019-02-18T01:41:05.636Z,0.00
2019-02-18T01:42:05.624Z,0.00
2019-02-18T01:43:05.616Z,0.00
2019-02-18T01:44:05.604Z,0.00
2019-02-18T01:45:05.593Z,0.00
2019-02-18T01:46:05.581Z,0.00
2019-02-18T01:47:05.570Z,0.00
2019-02-18T01:48:05.561Z,0.00
2019-02-18T01:49:05.547Z,0.00
2019-02-18T01:50:05.538Z,0.00
2019-02-18T01:51:05.530Z,0.00
2019-02-18T01:52:05.517Z,0.00
2019-02-18T01:53:05.516Z,0.00
2019-02-18T01:54:05.493Z,0.00
2019-02-18T01:55:05.484Z,0.00
2019-02-18T01:56:05.473Z,0.00
2019-02-18T01:57:05.460Z,0.00
2019-02-18T01:58:05.449Z,0.00
2019-02-18T01:59:05.439Z,0.00
2019-02-18T02:00:05.427Z,0.00
2019-02-18T02:01:05.416Z,0.00
2019-02-18T02:02:05.405Z,0.00
2019-02-18T02:03:05.394Z,0.00
2019-02-18T02:04:05.383Z,0.00
2019-02-18T02:05:05.380Z,0.00
2019-02-18T02:06:05.361Z,0.00
2019-02-18T02:07:05.351Z,0.00
2019-02-18T02:08:05.339Z,0.00
2019-02-18T02:09:05.330Z,0.00
2019-02-18T02:10:05.319Z,0.00
2019-02-18T02:11:05.315Z,0.00
2019-02-18T02:12:05.297Z,0.00
2019-02-18T02:13:05.285Z,0.00
2019-02-18T02:14:05.274Z,0.00
2019-02-18T02:15:05.263Z,0.00
2019-02-18T02:16:05.252Z,0.00
2019-02-18T02:17:05.240Z,0.00
2019-02-18T02:18:05.234Z,0.00
2019-02-18T02:19:05.219Z,0.00
2019-02-18T02:20:05.208Z,0.00
2019-02-18T02:21:05.199Z,0.00
2019-02-18T02:22:05.186Z,0.00
2019-02-18T02:23:05.175Z,0.00
2019-02-18T02:24:05.166Z,0.00
2019-02-18T02:25:05.153Z,0.00
2019-02-18T02:26:05.145Z,0.00
2019-02-18T02:27:05.132Z,0.00
2019-02-18T02:28:05.122Z,0.00
2019-02-18T02:29:05.111Z,0.00
2019-02-18T02:30:05.099Z,0.00
2019-02-18T02:31:05.088Z,0.00
2019-02-18T02:32:05.076Z,0.00
2019-02-18T02:33:05.066Z,0.00
2019-02-18T02:34:05.062Z,0.00
2019-02-18T02:35:05.044Z,0.00
2019-02-18T02:36:05.036Z,0.00
2019-02-18T02:37:05.022Z,0.00
2019-02-18T02:38:08.007Z,0.00
2019-02-18T02:39:05.005Z,0.00
2019-02-18T02:40:04.992Z,0.00
2019-02-18T02:41:04.979Z,0.00
2019-02-18T02:42:04.967Z,0.00
2019-02-18T02:43:04.958Z,0.00
2019-02-18T02:44:04.944Z,0.00
2019-02-18T02:45:04.936Z,0.00
2019-02-18T02:46:04.928Z,0.00
2019-02-18T02:47:04.912Z,0.00
2019-02-18T02:48:04.902Z,0.00
2019-02-18T02:49:04.891Z,0.00
2019-02-18T02:50:04.888Z,0.00
2019-02-18T02:51:04.873Z,0.00
2019-02-18T02:52:04.862Z,0.00
2019-02-18T02:53:04.850Z,0.00
2019-02-18T02:54:04.838Z,0.00
2019-02-18T02:55:04.826Z,0.00
2019-02-18T02:56:04.816Z,0.00
2019-02-18T02:57:04.804Z,0.00
2019-02-18T02:58:04.794Z,0.00
2019-02-18T02:59:04.781Z,0.00
2019-02-18T03:00:04.771Z,0.00
2019-02-18T03:01:04.762Z,0.00
2019-02-18T03:02:04.749Z,0.00
2019-02-18T03:03:04.739Z,0.00
2019-02-18T03:04:04.730Z,0.00
2019-02-18T03:05:04.713Z,0.00
2019-02-18T03:06:04.704Z,0.00
2019-02-18T03:07:04.693Z,0.00
2019-02-18T03:08:04.688Z,0.00
2019-02-18T03:09:04.679Z,0.00
2019-02-18T03:10:04.663Z,0.00
2019-02-18T03:11:04.649Z,0.00
2019-02-18T03:12:04.638Z,0.00
2019-02-18T03:13:04.629Z,0.00
2019-02-18T03:14:04.615Z,0.00
2019-02-18T03:15:04.608Z,0.00
2019-02-18T03:16:04.595Z,0.00
2019-02-18T03:17:04.585Z,0.00
2019-02-18T03:18:04.572Z,0.00
2019-02-18T03:19:04.562Z,0.00
2019-02-18T03:20:04.551Z,0.00
2019-02-18T03:21:04.543Z,0.00
2019-02-18T03:22:04.538Z,0.00
2019-02-18T03:23:04.516Z,0.00
2019-02-18T03:24:04.506Z,0.00
2019-02-18T03:25:04.494Z,0.00
2019-02-18T03:26:04.485Z,0.00
2019-02-18T03:27:04.474Z,0.00
2019-02-18T03:28:04.463Z,0.00
2019-02-18T03:29:04.453Z,0.00
2019-02-18T03:30:04.439Z,0.00
2019-02-18T03:31:04.439Z,0.00
2019-02-18T03:32:04.419Z,0.00
2019-02-18T03:33:04.426Z,0.00
2019-02-18T03:34:04.398Z,0.00
2019-02-18T03:35:04.386Z,0.00
2019-02-18T03:36:04.380Z,0.00
2019-02-18T03:37:04.367Z,0.00
2019-02-18T03:38:04.354Z,0.00
2019-02-18T03:39:04.342Z,0.00
2019-02-18T03:40:04.331Z,0.00
2019-02-18T03:41:04.319Z,0.00
2019-02-18T03:42:04.309Z,0.00
2019-02-18T03:43:04.300Z,0.00
2019-02-18T03:44:04.288Z,0.00
2019-02-18T03:45:04.278Z,0.00
2019-02-18T03:46:04.264Z,0.00
2019-02-18T03:47:04.253Z,0.00
2019-02-18T03:48:04.245Z,0.00
2019-02-18T03:49:04.232Z,0.00
2019-02-18T03:50:04.222Z,0.00
2019-02-18T03:51:04.217Z,0.00
2019-02-18T03:52:04.197Z,0.00
2019-02-18T03:53:04.188Z,0.00
2019-02-18T03:54:04.175Z,0.00
2019-02-18T03:55:04.164Z,0.00
2019-02-18T03:56:04.155Z,0.00
2019-02-18T03:57:04.147Z,0.00
2019-02-18T03:58:04.131Z,0.00
2019-02-18T03:59:04.120Z,0.00
2019-02-18T04:00:04.112Z,0.00
2019-02-18T04:01:04.115Z,0.00
2019-02-18T04:02:04.091Z,0.00
2019-02-18T04:03:04.077Z,0.00
2019-02-18T04:04:04.070Z,0.00
2019-02-18T04:05:04.055Z,0.00
2019-02-18T04:06:04.042Z,0.00
2019-02-18T04:07:04.031Z,0.00
2019-02-18T04:08:04.024Z,0.00
2019-02-18T04:09:04.010Z,0.00
2019-02-18T04:10:04.000Z,0.00
2019-02-18T04:11:03.988Z,0.00
2019-02-18T04:12:03.978Z,0.00
2019-02-18T04:13:03.966Z,0.00
2019-02-18T04:14:03.954Z,0.00
2019-02-18T04:15:03.945Z,0.00
2019-02-18T04:16:03.933Z,0.00
2019-02-18T04:17:03.929Z,0.00
2019-02-18T04:18:03.912Z,0.00
2019-02-18T04:19:03.899Z,0.00
2019-02-18T04:20:03.889Z,0.00
2019-02-18T04:21:03.877Z,0.00
2019-02-18T04:22:03.867Z,0.00
2019-02-18T04:23:03.858Z,0.00
2019-02-18T04:24:03.844Z,0.00
2019-02-18T04:25:03.834Z,0.00
2019-02-18T04:26:03.822Z,0.00
2019-02-18T04:27:03.813Z,0.00
2019-02-18T04:28:03.805Z,0.00
2019-02-18T04:29:03.810Z,0.00
2019-02-18T04:30:03.779Z,0.00
2019-02-18T04:31:03.766Z,0.00
2019-02-18T04:32:03.757Z,0.00
2019-02-18T04:33:03.748Z,0.00
2019-02-18T04:34:03.734Z,0.00
2019-02-18T04:35:03.723Z,0.00
2019-02-18T04:36:03.715Z,0.00
2019-02-18T04:37:03.706Z,0.00
2019-02-18T04:38:03.693Z,0.00
2019-02-18T04:39:03.680Z,0.00
2019-02-18T04:40:03.668Z,0.00
2019-02-18T04:41:03.658Z,0.00
2019-02-18T04:42:03.648Z,0.00
2019-02-18T04:43:03.639Z,0.00
2019-02-18T04:44:03.633Z,0.00
2019-02-18T04:45:03.614Z,0.00
2019-02-18T04:46:03.608Z,0.00
2019-02-18T04:47:03.593Z,0.00
2019-02-18T04:48:03.584Z,0.00
2019-02-18T04:49:03.572Z,0.00
2019-02-18T04:50:03.578Z,0.00
2019-02-18T04:51:03.554Z,0.00
2019-02-18T04:52:03.618Z,0.00
2019-02-18T04:53:03.527Z,0.00
2019-02-18T04:54:03.524Z,0.00
2019-02-18T04:55:03.508Z,0.00
2019-02-18T04:56:03.502Z,0.00
2019-02-18T04:57:03.483Z,0.00
2019-02-18T04:58:06.033Z,0.00
2019-02-18T04:59:03.466Z,0.00
2019-02-18T05:00:03.454Z,0.00
2019-02-18T05:01:03.450Z,0.00
2019-02-18T05:02:03.433Z,0.00
2019-02-18T05:03:03.418Z,0.00
2019-02-18T05:04:03.409Z,0.00
2019-02-18T05:05:03.402Z,0.00
2019-02-18T05:06:03.387Z,0.00
2019-02-18T05:07:03.382Z,0.00
2019-02-18T05:08:03.365Z,0.00
2019-02-18T05:09:05.701Z,0.00
2019-02-18T05:10:03.347Z,0.00
2019-02-18T05:11:03.332Z,0.00
2019-02-18T05:12:03.328Z,0.00
2019-02-18T05:13:03.318Z,0.00
2019-02-18T05:14:03.299Z,0.00
2019-02-18T05:15:03.289Z,0.00
2019-02-18T05:16:03.280Z,0.00
2019-02-18T05:17:03.270Z,0.00
2019-02-18T05:18:03.269Z,0.00
2019-02-18T05:19:03.248Z,0.00
2019-02-18T05:20:03.233Z,0.00
2019-02-18T05:21:03.226Z,0.00
2019-02-18T05:22:03.217Z,0.00
2019-02-18T05:23:03.201Z,0.00
2019-02-18T05:24:03.193Z,0.00
2019-02-18T05:25:03.178Z,0.00
2019-02-18T05:26:03.169Z,0.00
2019-02-18T05:27:03.161Z,0.00
2019-02-18T05:28:03.146Z,0.00
2019-02-18T05:29:03.140Z,0.00
2019-02-18T05:30:03.124Z,0.00
2019-02-18T05:31:03.115Z,0.00
2019-02-18T05:32:03.102Z,0.00
2019-02-18T05:33:03.093Z,0.00
2019-02-18T05:34:03.087Z,0.00
2019-02-18T05:35:03.072Z,0.00
2019-02-18T05:36:03.061Z,0.00
2019-02-18T05:37:03.051Z,0.00
2019-02-18T05:38:03.114Z,0.00
2019-02-18T05:39:03.025Z,0.00
2019-02-18T05:40:03.031Z,0.00
2019-02-18T05:41:03.003Z,0.00
2019-02-18T05:42:03.001Z,0.00
2019-02-18T05:43:02.988Z,0.00
2019-02-18T05:44:02.979Z,0.00
2019-02-18T05:45:02.963Z,0.00
2019-02-18T05:46:02.954Z,0.00
2019-02-18T05:47:02.944Z,0.00
2019-02-18T05:48:02.933Z,4.00
2019-02-18T05:49:02.919Z,4.00
2019-02-18T05:50:02.911Z,0.00
2019-02-18T05:51:02.897Z,4.00
2019-02-18T05:52:02.905Z,0.00
2019-02-18T05:53:02.876Z,4.00
2019-02-18T05:54:02.870Z,4.00
2019-02-18T05:55:02.853Z,4.00
2019-02-18T05:56:02.885Z,8.00
2019-02-18T05:57:02.833Z,8.00
2019-02-18T05:58:02.822Z,8.00
2019-02-18T05:59:02.813Z,12.00
2019-02-18T06:00:02.798Z,16.00
2019-02-18T06:01:02.790Z,16.00
2019-02-18T06:02:02.778Z,20.00
2019-02-18T06:03:02.766Z,20.00
2019-02-18T06:04:02.756Z,24.00
2019-02-18T06:05:02.749Z,28.00
2019-02-18T06:06:02.735Z,32.00
2019-02-18T06:07:02.725Z,32.00
2019-02-18T06:08:02.715Z,40.00
2019-02-18T06:09:02.702Z,48.00
2019-02-18T06:10:02.691Z,52.00
2019-02-18T06:11:02.684Z,56.00
2019-02-18T06:12:02.669Z,64.00
2019-02-18T06:13:02.658Z,68.00
2019-02-18T06:14:02.646Z,76.00
2019-02-18T06:15:02.637Z,84.00
2019-02-18T06:16:02.629Z,96.00
2019-02-18T06:17:02.943Z,104.00
2019-02-18T06:18:02.603Z,116.00
2019-02-18T06:19:02.593Z,124.00
2019-02-18T06:20:02.582Z,132.00
2019-02-18T06:21:02.572Z,148.00
2019-02-18T06:22:02.560Z,156.00
2019-02-18T06:23:02.551Z,172.00
2019-02-18T06:24:02.538Z,184.00
2019-02-18T06:25:02.529Z,200.00
2019-02-18T06:26:02.520Z,220.00
2019-02-18T06:27:02.507Z,236.00
2019-02-18T06:28:04.884Z,256.00
2019-02-18T06:29:02.484Z,276.00
2019-02-18T06:30:02.480Z,296.00
2019-02-18T06:31:02.462Z,316.00
2019-02-18T06:32:02.453Z,336.00
2019-02-18T06:33:02.447Z,360.00
2019-02-18T06:34:02.433Z,384.00
2019-02-18T06:35:02.419Z,408.00
2019-02-18T06:36:02.407Z,432.00
2019-02-18T06:37:02.399Z,448.00
2019-02-18T06:38:02.393Z,468.00
2019-02-18T06:39:02.380Z,488.00
2019-02-18T06:40:02.368Z,500.00
2019-02-18T06:41:02.354Z,512.00
2019-02-18T06:42:02.342Z,532.00
2019-02-18T06:43:02.331Z,548.00
2019-02-18T06:44:02.323Z,560.00
2019-02-18T06:45:02.312Z,580.00
2019-02-18T06:46:02.299Z,596.00
2019-02-18T06:47:02.293Z,616.00
2019-02-18T06:48:02.276Z,640.00
2019-02-18T06:49:02.266Z,664.00
2019-02-18T06:50:02.257Z,684.00
2019-02-18T06:51:02.250Z,708.00
2019-02-18T06:52:02.238Z,740.00
2019-02-18T06:53:02.223Z,772.00
2019-02-18T06:54:02.212Z,796.00
2019-02-18T06:55:02.201Z,816.00
2019-02-18T06:56:02.189Z,836.00
2019-02-18T06:57:02.179Z,856.00
2019-02-18T06:58:02.167Z,876.00
2019-02-18T06:59:02.156Z,888.00
2019-02-18T07:00:02.145Z,904.00
2019-02-18T07:01:02.134Z,920.00
2019-02-18T07:02:02.121Z,936.00
2019-02-18T07:03:02.112Z,956.00
2019-02-18T07:04:02.100Z,988.00
2019-02-18T07:05:02.093Z,1016.00
2019-02-18T07:06:02.078Z,1040.00
2019-02-18T07:07:02.067Z,1056.00
2019-02-18T07:08:02.058Z,1080.00
2019-02-18T07:09:02.045Z,1108.00
2019-02-18T07:10:02.044Z,1120.00
2019-02-18T07:11:02.029Z,1132.00
2019-02-18T07:12:02.023Z,1152.00
2019-02-18T07:13:02.001Z,1168.00
2019-02-18T07:14:01.991Z,1180.00
2019-02-18T07:15:01.978Z,1200.00
2019-02-18T07:16:01.973Z,1232.00
2019-02-18T07:17:01.959Z,1252.00
2019-02-18T07:18:01.948Z,1280.00
2019-02-18T07:19:01.936Z,1284.00
2019-02-18T07:20:01.928Z,1276.00
2019-02-18T07:21:01.913Z,1272.00
2019-02-18T07:22:01.903Z,1284.00
2019-02-18T07:23:01.893Z,1316.00
2019-02-18T07:24:01.882Z,1368.00
2019-02-18T07:25:01.878Z,1392.00
2019-02-18T07:26:01.863Z,1404.00
2019-02-18T07:27:01.851Z,1416.00
2019-02-18T07:28:01.836Z,1440.00
2019-02-18T07:29:01.826Z,1456.00
2019-02-18T07:30:01.814Z,1460.00
2019-02-18T07:31:01.875Z,1492.00
2019-02-18T07:32:01.795Z,1552.00
2019-02-18T07:33:01.783Z,1584.00
2019-02-18T07:34:01.772Z,1604.00
2019-02-18T07:35:01.762Z,1624.00
2019-02-18T07:36:01.750Z,1648.00
2019-02-18T07:37:01.739Z,1676.00
2019-02-18T07:38:01.726Z,1692.00
2019-02-18T07:39:01.716Z,1704.00
2019-02-18T07:40:02.394Z,1720.00
2019-02-18T07:41:01.695Z,1740.00
2019-02-18T07:42:01.681Z,1756.00
2019-02-18T07:43:01.674Z,1772.00
2019-02-18T07:44:01.660Z,1788.00
2019-02-18T07:45:01.649Z,1808.00
2019-02-18T07:46:01.637Z,1828.00
2019-02-18T07:47:01.636Z,1844.00
2019-02-18T07:48:01.617Z,1868.00
2019-02-18T07:49:01.607Z,1892.00
2019-02-18T07:50:01.597Z,1912.00
2019-02-18T07:51:01.583Z,1924.00
2019-02-18T07:52:01.575Z,1940.00
2019-02-18T07:53:01.561Z,1960.00
2019-02-18T07:54:19.696Z,1984.00
2019-02-18T07:55:43.087Z,2008.00
2019-02-18T07:56:43.075Z,2024.00
2019-02-18T07:57:43.065Z,2028.00
2019-02-18T07:58:43.055Z,2032.00
2019-02-18T07:59:43.056Z,2044.00
2019-02-18T08:00:43.035Z,2076.00
2019-02-18T08:01:43.020Z,2100.00
2019-02-18T08:02:43.027Z,2116.00
2019-02-18T08:03:43.000Z,2132.00
2019-02-18T08:04:43.023Z,2144.00
2019-02-18T08:05:43.041Z,2156.00
2019-02-18T08:06:42.966Z,2176.00
2019-02-18T08:07:42.958Z,2192.00
2019-02-18T08:08:42.944Z,2200.00
2019-02-18T08:09:42.931Z,2216.00
2019-02-18T08:10:42.925Z,2228.00
2019-02-18T08:11:42.923Z,2248.00
2019-02-18T08:12:42.904Z,2268.00
2019-02-18T08:13:42.889Z,2296.00
2019-02-18T08:14:42.881Z,2320.00
2019-02-18T08:15:42.866Z,2356.00
2019-02-18T08:16:42.859Z,2400.00
2019-02-18T08:17:42.846Z,2444.00
2019-02-18T08:18:42.834Z,2500.00
2019-02-18T08:19:42.821Z,2556.00
2019-02-18T08:20:42.811Z,2612.00
2019-02-18T08:21:42.799Z,2664.00
2019-02-18T08:22:42.798Z,2728.00
2019-02-18T08:23:42.795Z,2792.00
2019-02-18T08:24:42.789Z,2864.00
2019-02-18T08:25:42.756Z,2932.00
2019-02-18T08:26:44.180Z,3004.00
2019-02-18T08:27:42.739Z,3080.00
2019-02-18T08:28:42.723Z,3156.00
2019-02-18T08:29:42.725Z,3232.00
2019-02-18T08:30:42.731Z,3312.00
2019-02-18T08:31:42.714Z,3364.00
2019-02-18T08:32:42.697Z,3416.00
2019-02-18T08:33:42.691Z,3440.00
2019-02-18T08:34:42.677Z,3436.00
2019-02-18T08:35:42.667Z,3420.00
2019-02-18T08:36:42.689Z,3388.00
2019-02-18T08:37:42.645Z,3348.00
2019-02-18T08:38:42.629Z,3312.00
2019-02-18T08:39:42.634Z,3272.00
2019-02-18T08:40:42.621Z,3240.00
2019-02-18T08:41:42.598Z,3208.00
2019-02-18T08:42:42.594Z,3176.00
2019-02-18T08:43:42.575Z,3152.00
2019-02-18T08:44:42.573Z,3132.00
2019-02-18T08:45:42.560Z,3128.00
2019-02-18T08:46:42.539Z,3128.00
2019-02-18T08:47:42.537Z,3124.00
2019-02-18T08:48:42.526Z,3120.00
2019-02-18T08:49:42.505Z,3108.00
2019-02-18T08:50:42.492Z,3092.00
2019-02-18T08:51:42.530Z,3092.00
2019-02-18T08:52:42.496Z,3108.00
2019-02-18T08:53:42.473Z,3124.00
2019-02-18T08:54:42.442Z,3140.00
2019-02-18T08:55:42.440Z,3148.00
2019-02-18T08:56:42.426Z,3148.00
2019-02-18T08:57:42.430Z,3096.00
2019-02-18T08:58:42.421Z,3040.00
2019-02-18T08:59:42.414Z,3044.00
2019-02-18T09:00:42.403Z,3072.00
2019-02-18T09:01:42.391Z,3124.00
2019-02-18T09:02:42.376Z,3148.00
2019-02-18T09:03:42.358Z,3156.00
2019-02-18T09:04:42.340Z,3164.00
2019-02-18T09:05:42.346Z,3208.00
2019-02-18T09:06:42.343Z,3240.00
2019-02-18T09:07:42.297Z,3268.00
2019-02-18T09:08:42.297Z,3268.00
2019-02-18T09:09:42.296Z,3260.00
2019-02-18T09:10:42.293Z,3256.00
2019-02-18T09:11:42.274Z,3288.00
2019-02-18T09:12:42.271Z,3344.00
2019-02-18T09:13:42.247Z,3388.00
2019-02-18T09:14:42.216Z,3428.00
2019-02-18T09:15:42.227Z,3548.00
2019-02-18T09:16:42.221Z,3968.00
2019-02-18T09:17:42.210Z,5348.00
2019-02-18T09:18:42.198Z,6652.00
2019-02-18T09:19:42.182Z,8048.00
2019-02-18T09:20:42.188Z,9872.00
2019-02-18T09:21:42.158Z,9988.00
2019-02-18T09:22:42.151Z,13628.00
2019-02-18T09:23:42.154Z,11492.00
2019-02-18T09:24:42.125Z,6616.00
2019-02-18T09:25:43.470Z,11416.00
2019-02-18T09:26:42.111Z,20512.00
2019-02-18T09:27:42.102Z,21984.00
2019-02-18T09:28:42.094Z,18080.00
2019-02-18T09:29:42.072Z,18432.00
2019-02-18T09:30:42.065Z,20768.00
2019-02-18T09:31:42.910Z,22592.00
2019-02-18T09:32:42.046Z,17984.00
2019-02-18T09:33:42.035Z,8276.00
2019-02-18T09:34:42.012Z,6132.00
2019-02-18T09:35:42.037Z,5568.00
2019-02-18T09:36:41.991Z,5348.00
2019-02-18T09:37:41.998Z,5464.00
2019-02-18T09:38:41.950Z,5440.00
2019-02-18T09:39:41.960Z,5348.00
2019-02-18T09:40:44.685Z,5404.00
2019-02-18T09:41:42.921Z,5512.00
2019-02-18T09:42:41.906Z,5772.00
2019-02-18T09:43:41.894Z,7288.00
2019-02-18T09:44:41.885Z,19136.00
2019-02-18T09:45:41.874Z,29184.00
2019-02-18T09:46:41.862Z,30560.00
2019-02-18T09:47:41.856Z,30976.00
2019-02-18T09:48:41.839Z,30112.00
2019-02-18T09:49:41.829Z,30656.00
2019-02-18T09:50:41.819Z,30976.00
2019-02-18T09:51:41.811Z,31136.00
2019-02-18T09:52:41.795Z,31040.00
2019-02-18T09:53:41.791Z,31648.00
2019-02-18T09:54:41.772Z,32000.00
2019-02-18T09:55:41.762Z,32608.00
2019-02-18T09:56:41.751Z,29888.00
2019-02-18T09:57:41.741Z,23264.00
2019-02-18T09:58:41.729Z,15392.00
2019-02-18T09:59:41.717Z,9192.00
2019-02-18T10:00:41.712Z,7024.00
2019-02-18T10:01:43.301Z,6708.00
2019-02-18T10:02:59.835Z,6460.00
2019-02-18T10:04:12.150Z,6180.00
2019-02-18T10:05:12.135Z,5800.00
2019-02-18T10:06:55.006Z,3868.00
2019-02-18T10:07:53.659Z,3616.00
2019-02-18T10:09:35.193Z,3552.00
2019-02-18T10:10:35.182Z,3516.00
2019-02-18T10:12:18.654Z,3492.00
2019-02-18T10:13:16.707Z,3492.00
2019-02-18T10:14:47.174Z,3524.00
2019-02-18T10:15:47.159Z,3524.00
2019-02-18T10:17:28.696Z,3512.00
2019-02-18T10:18:28.681Z,3508.00
2019-02-18T10:20:10.217Z,3536.00
2019-02-18T10:21:10.203Z,3532.00
2019-02-18T10:22:51.743Z,3524.00
2019-02-18T10:23:51.728Z,3508.00
2019-02-18T10:25:33.264Z,3496.00
2019-02-18T10:26:33.251Z,3480.00
2019-02-18T10:28:15.798Z,3472.00
2019-02-18T10:29:15.784Z,3448.00
2019-02-18T10:30:57.327Z,3408.00
2019-02-18T10:31:57.329Z,3400.00
2019-02-18T10:32:57.299Z,3396.00
2019-02-18T10:33:57.286Z,3380.00
2019-02-18T10:34:57.278Z,3380.00
2019-02-18T10:35:57.266Z,3392.00
2019-02-18T10:36:57.254Z,3392.00
2019-02-18T10:37:57.244Z,3372.00
2019-02-18T10:38:57.230Z,3356.00
2019-02-18T10:39:57.220Z,3352.00
2019-02-18T10:41:06.487Z,3336.00
2019-02-18T10:41:58.197Z,3312.00
2019-02-18T10:42:57.188Z,3304.00
2019-02-18T10:43:57.175Z,3296.00
2019-02-18T10:44:57.165Z,3280.00
2019-02-18T10:45:57.152Z,3280.00
2019-02-18T10:46:57.141Z,3256.00
2019-02-18T10:47:57.145Z,3236.00
2019-02-18T10:48:57.119Z,3212.00
2019-02-18T10:49:57.108Z,3200.00
2019-02-18T10:50:57.098Z,3176.00
2019-02-18T10:51:57.085Z,3160.00
2019-02-18T10:52:57.078Z,3156.00
2019-02-18T10:53:57.065Z,3136.00
2019-02-18T10:54:57.052Z,3112.00
2019-02-18T10:55:57.044Z,3092.00
2019-02-18T10:56:57.030Z,3068.00
2019-02-18T10:57:57.018Z,3048.00
2019-02-18T10:58:57.009Z,3032.00
2019-02-18T10:59:59.223Z,3024.00
2019-02-18T11:00:56.985Z,3008.00
2019-02-18T11:01:56.974Z,3004.00
2019-02-18T11:02:56.969Z,2992.00
2019-02-18T11:03:56.954Z,2964.00
2019-02-18T11:04:56.943Z,2920.00
2019-02-18T11:05:56.930Z,2876.00
2019-02-18T11:06:56.920Z,2820.00
2019-02-18T11:07:56.907Z,2824.00
2019-02-18T11:08:56.897Z,2808.00
2019-02-18T11:09:56.886Z,2780.00
2019-02-18T11:10:56.880Z,2764.00
2019-02-18T11:11:56.861Z,2752.00
2019-02-18T11:12:56.851Z,2740.00
2019-02-18T11:13:56.844Z,2716.00
2019-02-18T11:14:56.828Z,2688.00
2019-02-18T11:15:56.820Z,2648.00
2019-02-18T11:16:56.807Z,2628.00
2019-02-18T11:17:56.793Z,2588.00
2019-02-18T11:18:56.784Z,2552.00
2019-02-18T11:19:56.776Z,2520.00
2019-02-18T11:20:56.760Z,2508.00
2019-02-18T11:21:56.750Z,2480.00
2019-02-18T11:22:56.738Z,2460.00
2019-02-18T11:23:56.727Z,2444.00
2019-02-18T11:24:56.718Z,2420.00
2019-02-18T11:25:56.705Z,2396.00
2019-02-18T11:26:56.701Z,2376.00
2019-02-18T11:27:56.694Z,2364.00
2019-02-18T11:28:56.672Z,2348.00
2019-02-18T11:29:56.660Z,2340.00
2019-02-18T11:30:56.653Z,2328.00
2019-02-18T11:31:56.639Z,2316.00
2019-02-18T11:32:56.629Z,2300.00
2019-02-18T11:33:56.622Z,2292.00
2019-02-18T11:34:56.604Z,2284.00
2019-02-18T11:35:56.593Z,2280.00
2019-02-18T11:36:56.590Z,2264.00
2019-02-18T11:37:56.571Z,2268.00
2019-02-18T11:38:56.560Z,2260.00
2019-02-18T11:39:56.550Z,2252.00
2019-02-18T11:40:56.537Z,2240.00
2019-02-18T11:41:56.525Z,2236.00
2019-02-18T11:42:56.513Z,2224.00
2019-02-18T11:43:56.504Z,2216.00
2019-02-18T11:44:56.491Z,2216.00
2019-02-18T11:45:56.482Z,2196.00
2019-02-18T11:46:56.469Z,2212.00
2019-02-18T11:47:56.458Z,2208.00
2019-02-18T11:48:56.447Z,2196.00
2019-02-18T11:49:56.438Z,2188.00
2019-02-18T11:50:56.424Z,2176.00
2019-02-18T11:51:56.413Z,2172.00
2019-02-18T11:52:56.407Z,2168.00
2019-02-18T11:53:56.391Z,2168.00
2019-02-18T11:54:56.379Z,2156.00
2019-02-18T11:55:56.371Z,2144.00
2019-02-18T11:56:56.357Z,2148.00
2019-02-18T11:57:56.364Z,2152.00
2019-02-18T11:58:56.337Z,2144.00
2019-02-18T11:59:56.323Z,2124.00
2019-02-18T12:00:56.313Z,2104.00
2019-02-18T12:01:56.302Z,2088.00
2019-02-18T12:03:03.650Z,2076.00
2019-02-18T12:03:57.277Z,2060.00
2019-02-18T12:04:56.269Z,2056.00
2019-02-18T12:05:56.254Z,2052.00
2019-02-18T12:06:56.244Z,2052.00
2019-02-18T12:07:56.232Z,2044.00
2019-02-18T12:08:56.223Z,2016.00
2019-02-18T12:09:56.212Z,2012.00
2019-02-18T12:10:56.207Z,2004.00
2019-02-18T12:11:56.189Z,1992.00
2019-02-18T12:12:56.176Z,1984.00
2019-02-18T12:13:56.193Z,1972.00
2019-02-18T12:14:56.155Z,1968.00
2019-02-18T12:15:56.142Z,1888.00
2019-02-18T12:16:56.138Z,1960.00
2019-02-18T12:17:56.120Z,1932.00
2019-02-18T12:18:56.109Z,1916.00
2019-02-18T12:19:56.107Z,1896.00
2019-02-18T12:21:15.712Z,1888.00
2019-02-18T12:22:37.627Z,1880.00
2019-02-18T12:23:37.613Z,1860.00
2019-02-18T12:25:19.151Z,1844.00
2019-02-18T12:26:19.137Z,1820.00
2019-02-18T12:28:00.698Z,1816.00
2019-02-18T12:29:00.666Z,1804.00
2019-02-18T12:30:42.697Z,1808.00
2019-02-18T12:31:42.685Z,1788.00
2019-02-18T12:32:42.675Z,1776.00
2019-02-18T12:33:42.664Z,1768.00
2019-02-18T12:34:42.653Z,1768.00
2019-02-18T12:35:42.642Z,1764.00
2019-02-18T12:36:42.631Z,1756.00
2019-02-18T12:37:42.619Z,1748.00
2019-02-18T12:38:42.606Z,1732.00
2019-02-18T12:39:42.597Z,1724.00
2019-02-18T12:40:42.588Z,1708.00
2019-02-18T12:41:48.609Z,1720.00
2019-02-18T12:42:43.562Z,1712.00
2019-02-18T12:43:42.551Z,1700.00
2019-02-18T12:44:42.542Z,1688.00
2019-02-18T12:45:42.529Z,1684.00
2019-02-18T12:46:42.518Z,1672.00
2019-02-18T12:47:42.509Z,1664.00
2019-02-18T12:48:42.501Z,1652.00
2019-02-18T12:49:42.487Z,1640.00
2019-02-18T12:50:42.474Z,1636.00